createdAt,value
2022-08-12T00:00:48.373Z,19.26
2022-08-12T00:03:34.101Z,19.19
2022-08-12T00:06:21.542Z,19.26
2022-08-12T00:09:06.874Z,19.08
2022-08-12T00:11:52.749Z,19.07
2022-08-12T00:14:37.974Z,18.99
2022-08-12T00:17:23.475Z,18.90
2022-08-12T00:20:09.003Z,18.84
2022-08-12T00:22:59.359Z,18.80
2022-08-12T00:26:23.209Z,18.79
2022-08-12T00:28:59.940Z,18.80
2022-08-12T00:31:45.142Z,18.74
2022-08-12T00:34:32.339Z,18.63
2022-08-12T00:37:17.524Z,18.60
2022-08-12T00:40:11.343Z,18.57
2022-08-12T00:42:40.427Z,18.53
2022-08-12T00:45:08.755Z,18.43
2022-08-12T00:47:37.134Z,18.41
2022-08-12T00:50:06.433Z,18.36
2022-08-12T00:52:35.273Z,18.43
2022-08-12T00:55:06.219Z,18.41
2022-08-12T00:57:36.363Z,18.42
2022-08-12T01:00:08.412Z,18.38
2022-08-12T01:02:38.812Z,18.30
2022-08-12T01:05:26.501Z,18.32
2022-08-12T01:08:12.395Z,18.30
2022-08-12T01:11:00.663Z,18.19
2022-08-12T01:13:29.704Z,18.20
2022-08-12T01:15:59.073Z,18.23
2022-08-12T01:18:28.327Z,18.18
2022-08-12T01:21:04.963Z,18.10
2022-08-12T01:24:29.657Z,18.15
2022-08-12T01:26:52.412Z,18.06
2022-08-12T01:29:26.106Z,18.02
2022-08-12T01:31:56.316Z,18.04
2022-08-12T01:34:36.517Z,17.97
2022-08-12T01:37:07.167Z,18.01
2022-08-12T01:40:34.099Z,18.05
2022-08-12T01:42:43.275Z,18.02
2022-08-12T01:45:12.257Z,17.98
2022-08-12T01:47:50.637Z,17.92
2022-08-12T01:50:22.756Z,18.01
2022-08-12T01:52:57.767Z,18.00
2022-08-12T01:55:26.655Z,17.99
2022-08-12T01:58:13.036Z,17.97
2022-08-12T02:00:55.450Z,17.86
2022-08-12T02:04:00.194Z,17.87
2022-08-12T02:06:49.370Z,17.93
2022-08-12T02:09:37.706Z,17.93
2022-08-12T02:12:10.625Z,17.90
2022-08-12T02:14:52.528Z,17.83
2022-08-12T02:17:55.093Z,17.98
2022-08-12T02:20:43.883Z,17.92
2022-08-12T02:23:20.397Z,17.97
2022-08-12T02:25:48.648Z,17.94
2022-08-12T02:28:16.528Z,17.87
2022-08-12T02:30:45.661Z,17.93
2022-08-12T02:33:13.426Z,17.86
2022-08-12T02:35:41.083Z,17.76
2022-08-12T02:38:10.999Z,17.71
2022-08-12T02:40:41.228Z,17.69
2022-08-12T02:43:15.422Z,17.64
2022-08-12T02:45:47.970Z,17.69
2022-08-12T02:48:20.091Z,17.61
2022-08-12T02:50:51.314Z,17.64
2022-08-12T02:53:19.112Z,17.60
2022-08-12T02:55:46.843Z,17.59
2022-08-12T02:58:15.019Z,17.51
2022-08-12T03:00:43.869Z,17.50
2022-08-12T03:03:15.245Z,17.53
2022-08-12T03:05:48.565Z,17.49
2022-08-12T03:08:32.093Z,17.40
2022-08-12T03:11:04.620Z,17.41
2022-08-12T03:13:37.071Z,17.36
2022-08-12T03:16:05.328Z,17.19
2022-08-12T03:18:34.968Z,17.18
2022-08-12T03:21:03.268Z,17.20
2022-08-12T03:23:31.663Z,17.23
2022-08-12T03:26:01.590Z,17.20
2022-08-12T03:28:48.442Z,17.20
2022-08-12T03:31:16.704Z,17.17
2022-08-12T03:34:01.682Z,17.14
2022-08-12T03:36:33.440Z,17.04
2022-08-12T03:39:17.175Z,17.04
2022-08-12T03:41:58.038Z,16.95
2022-08-12T03:44:46.471Z,16.98
2022-08-12T03:47:35.888Z,16.97
2022-08-12T03:50:23.481Z,16.87
2022-08-12T03:53:08.725Z,16.84
2022-08-12T03:55:54.600Z,16.86
2022-08-12T03:58:40.661Z,16.85
2022-08-12T04:01:08.811Z,16.75
2022-08-12T04:03:56.788Z,16.82
2022-08-12T04:06:35.158Z,16.79
2022-08-12T04:09:05.295Z,16.77
2022-08-12T04:12:01.964Z,16.70
2022-08-12T04:14:29.929Z,16.71
2022-08-12T04:16:57.986Z,16.63
2022-08-12T04:19:26.336Z,16.74
2022-08-12T04:22:03.072Z,16.66
2022-08-12T04:24:34.931Z,16.73
2022-08-12T04:27:05.329Z,16.69
2022-08-12T04:30:31.590Z,16.70
2022-08-12T04:32:21.997Z,16.79
2022-08-12T04:34:50.072Z,16.80
2022-08-12T04:37:19.043Z,16.77
2022-08-12T04:39:47.227Z,16.89
2022-08-12T04:42:15.860Z,16.92
2022-08-12T04:44:44.341Z,16.92
2022-08-12T04:47:12.849Z,16.91
2022-08-12T04:49:41.023Z,16.95
2022-08-12T04:52:08.926Z,16.96
2022-08-12T04:54:37.990Z,17.04
2022-08-12T04:57:09.308Z,17.02
2022-08-12T04:59:47.284Z,17.12
2022-08-12T05:02:21.287Z,17.13
2022-08-12T05:04:51.340Z,17.28
2022-08-12T05:07:19.109Z,17.29
2022-08-12T05:10:00.549Z,17.32
2022-08-12T05:12:36.473Z,17.65
2022-08-12T05:15:19.178Z,17.74
2022-08-12T05:17:53.713Z,17.83
2022-08-12T05:20:22.278Z,17.88
2022-08-12T05:22:53.293Z,17.86
2022-08-12T05:25:26.583Z,18.13
2022-08-12T05:27:57.954Z,18.17
2022-08-12T05:30:26.530Z,18.23
2022-08-12T05:32:55.462Z,18.43
2022-08-12T05:35:23.262Z,18.47
2022-08-12T05:38:12.571Z,18.65
2022-08-12T05:40:42.100Z,18.86
2022-08-12T05:43:10.091Z,19.18
2022-08-12T05:45:42.857Z,20.34
2022-08-12T05:48:13.214Z,22.42
2022-08-12T05:50:41.043Z,24.07
2022-08-12T05:53:08.992Z,24.81
2022-08-12T05:55:37.138Z,26.23
2022-08-12T05:58:07.708Z,26.32
2022-08-12T06:00:36.157Z,26.93
2022-08-12T06:03:05.981Z,27.36
2022-08-12T06:05:54.332Z,27.29
2022-08-12T06:08:23.222Z,27.67
2022-08-12T06:10:50.977Z,27.88
2022-08-12T06:13:25.734Z,26.99
2022-08-12T06:16:09.705Z,26.40
2022-08-12T06:18:39.885Z,27.11
2022-08-12T06:21:08.417Z,26.61
2022-08-12T06:23:41.871Z,27.17
2022-08-12T06:26:11.522Z,26.99
2022-08-12T06:28:40.707Z,27.58
2022-08-12T06:31:25.811Z,27.26
2022-08-12T06:34:52.836Z,27.36
2022-08-12T06:36:43.069Z,27.62
2022-08-12T06:39:14.836Z,27.11
2022-08-12T06:42:30.824Z,28.54
2022-08-12T06:44:50.526Z,27.15
2022-08-12T06:47:19.703Z,28.08
2022-08-12T06:49:48.435Z,27.04
2022-08-12T06:52:17.161Z,26.99
2022-08-12T06:54:45.678Z,27.43
2022-08-12T06:58:08.090Z,26.51
2022-08-12T07:00:02.235Z,24.06
2022-08-12T07:02:32.550Z,23.24
2022-08-12T07:05:02.504Z,22.69
2022-08-12T07:07:30.470Z,22.40
2022-08-12T07:10:07.088Z,22.51
2022-08-12T07:12:35.941Z,22.01
2022-08-12T07:15:05.434Z,22.04
2022-08-12T07:17:37.456Z,22.14
2022-08-12T07:20:06.491Z,22.20
2022-08-12T07:22:34.323Z,22.05
2022-08-12T07:25:19.382Z,22.07
2022-08-12T07:27:47.700Z,22.11
2022-08-12T07:30:16.699Z,22.44
2022-08-12T07:32:49.593Z,22.39
2022-08-12T07:35:19.572Z,22.32
2022-08-12T07:37:48.650Z,22.33
2022-08-12T07:40:16.260Z,22.52
2022-08-12T07:42:44.227Z,22.49
2022-08-12T07:45:12.733Z,22.56
2022-08-12T07:47:43.141Z,22.76
2022-08-12T07:50:11.367Z,22.81
2022-08-12T07:52:42.068Z,23.06
2022-08-12T07:55:10.523Z,23.27
2022-08-12T07:57:49.817Z,23.26
2022-08-12T08:00:18.572Z,23.36
2022-08-12T08:02:49.209Z,23.56
2022-08-12T08:05:19.404Z,23.67
2022-08-12T08:07:47.087Z,23.74
2022-08-12T08:10:14.914Z,23.72
2022-08-12T08:12:53.476Z,23.84
2022-08-12T08:15:38.557Z,24.10
2022-08-12T08:18:26.461Z,24.34
2022-08-12T08:20:56.560Z,24.45
2022-08-12T08:23:46.373Z,24.37
2022-08-12T08:26:16.417Z,24.39
2022-08-12T08:28:44.480Z,24.60
2022-08-12T08:31:14.190Z,24.74
2022-08-12T08:34:09.687Z,24.72
2022-08-12T08:36:30.655Z,24.69
2022-08-12T08:38:58.891Z,24.65
2022-08-12T08:42:13.981Z,24.86
2022-08-12T08:44:32.097Z,25.01
2022-08-12T08:47:01.202Z,25.11
2022-08-12T08:49:30.222Z,25.27
2022-08-12T08:51:57.803Z,25.39
2022-08-12T08:54:25.627Z,25.37
2022-08-12T08:56:53.688Z,25.47
2022-08-12T08:59:22.313Z,25.47
2022-08-12T09:01:49.957Z,25.60
2022-08-12T09:05:12.013Z,25.86
2022-08-12T09:07:17.069Z,25.88
2022-08-12T09:10:03.389Z,26.12
2022-08-12T09:13:00.930Z,26.21
2022-08-12T09:18:30.957Z,26.32
2022-08-12T09:21:01.920Z,26.45
2022-08-12T09:23:59.063Z,26.73
2022-08-12T09:26:22.677Z,26.79
2022-08-12T09:28:56.487Z,26.59
2022-08-12T09:32:03.206Z,26.77
2022-08-12T09:34:29.553Z,26.93
2022-08-12T09:37:02.368Z,26.90
2022-08-12T09:40:06.243Z,26.92
2022-08-12T09:42:43.598Z,26.99
2022-08-12T09:46:20.543Z,27.45
2022-08-12T09:48:19.942Z,27.36
2022-08-12T09:50:52.006Z,27.69
2022-08-12T09:53:29.345Z,27.82
2022-08-12T09:56:58.209Z,27.73
2022-08-12T09:59:01.670Z,27.89
2022-08-12T10:01:35.451Z,27.88
2022-08-12T10:04:19.279Z,28.06
2022-08-12T10:06:53.989Z,28.21
2022-08-12T10:09:28.641Z,28.39
2022-08-12T10:12:32.852Z,28.44
2022-08-12T10:15:01.464Z,28.29
2022-08-12T10:17:29.549Z,28.18
2022-08-12T10:19:59.597Z,28.14
2022-08-12T10:22:39.157Z,28.21
2022-08-12T10:26:35.906Z,28.51
2022-08-12T10:28:35.997Z,28.40
2022-08-12T10:31:06.284Z,28.48
2022-08-12T10:33:55.186Z,28.62
2022-08-12T10:36:36.285Z,28.77
2022-08-12T10:40:02.308Z,28.93
2022-08-12T10:42:14.083Z,29.06
2022-08-12T10:44:43.057Z,29.03
2022-08-12T10:47:26.051Z,28.99
2022-08-12T10:50:07.071Z,29.17
2022-08-12T10:52:42.338Z,29.11
2022-08-12T10:55:13.087Z,29.07
2022-08-12T10:57:50.493Z,28.91
2022-08-12T11:00:35.606Z,29.01
2022-08-12T11:04:23.739Z,28.95
2022-08-12T11:07:09.588Z,29.00
2022-08-12T11:08:42.438Z,28.93
2022-08-12T11:12:07.918Z,28.68
2022-08-12T11:14:05.439Z,29.13
2022-08-12T11:16:34.655Z,29.31
2022-08-12T11:19:05.668Z,29.33
2022-08-12T11:21:56.593Z,29.61
2022-08-12T11:24:31.920Z,29.29
2022-08-12T11:27:07.999Z,29.44
2022-08-12T11:30:05.545Z,29.57
2022-08-12T11:32:28.351Z,29.65
2022-08-12T11:34:59.408Z,29.57
2022-08-12T11:37:27.101Z,29.48
2022-08-12T11:42:34.819Z,29.90
2022-08-12T11:45:03.553Z,29.95
2022-08-12T11:47:34.341Z,29.66
2022-08-12T11:50:11.920Z,29.51
2022-08-12T11:52:55.649Z,29.89
2022-08-12T11:55:24.886Z,29.88
2022-08-12T11:58:59.289Z,29.71
2022-08-12T12:03:44.092Z,29.64
2022-08-12T12:06:16.341Z,29.77
2022-08-12T12:08:52.790Z,30.09
2022-08-12T12:11:22.268Z,30.38
2022-08-12T12:14:08.150Z,30.28
2022-08-12T12:16:39.782Z,30.45
2022-08-12T12:19:10.418Z,30.31
2022-08-12T12:21:46.960Z,30.28
2022-08-12T12:24:20.838Z,30.65
2022-08-12T12:26:59.796Z,30.47
2022-08-12T12:30:18.483Z,30.21
2022-08-12T12:32:16.467Z,30.17
2022-08-12T12:35:14.570Z,30.29
2022-08-12T12:38:03.292Z,30.54
2022-08-12T12:40:20.660Z,30.38
2022-08-12T12:42:56.711Z,30.34
2022-08-12T12:45:32.556Z,30.46
2022-08-12T12:48:02.781Z,30.41
2022-08-12T12:50:35.469Z,30.57
2022-08-12T12:53:05.844Z,30.41
2022-08-12T12:55:35.826Z,30.61
2022-08-12T12:58:04.635Z,30.79
2022-08-12T13:00:33.383Z,30.75
2022-08-12T13:03:01.041Z,30.29
2022-08-12T13:05:42.664Z,30.15
2022-08-12T13:08:28.235Z,30.17
2022-08-12T13:11:00.316Z,30.21
2022-08-12T13:14:10.120Z,30.44
2022-08-12T13:16:21.442Z,30.90
2022-08-12T13:18:49.279Z,31.15
2022-08-12T13:21:32.674Z,31.15
2022-08-12T13:24:02.544Z,31.11
2022-08-12T13:26:37.803Z,31.16
2022-08-12T13:29:05.374Z,31.16
2022-08-12T13:31:35.579Z,30.94
2022-08-12T13:34:31.861Z,30.52
2022-08-12T13:37:09.055Z,30.97
2022-08-12T13:39:39.174Z,30.90
2022-08-12T13:42:14.686Z,30.59
2022-08-12T13:44:42.905Z,30.98
2022-08-12T13:47:19.514Z,31.10
2022-08-12T13:49:55.186Z,31.10
2022-08-12T13:52:25.672Z,30.94
2022-08-12T13:54:55.140Z,30.96
2022-08-12T13:57:25.490Z,30.95
2022-08-12T13:59:55.661Z,31.16
2022-08-12T14:02:28.529Z,30.95
2022-08-12T14:04:57.051Z,30.76
2022-08-12T14:07:27.517Z,30.86
2022-08-12T14:10:16.311Z,30.99
2022-08-12T14:12:54.251Z,30.84
2022-08-12T14:15:37.047Z,30.73
2022-08-12T14:18:13.313Z,30.70
2022-08-12T14:20:41.747Z,31.03
2022-08-12T14:23:16.577Z,31.24
2022-08-12T14:26:05.153Z,31.24
2022-08-12T14:28:34.881Z,30.93
2022-08-12T14:31:05.494Z,31.15
2022-08-12T14:33:48.284Z,30.91
2022-08-12T14:36:20.503Z,30.65
2022-08-12T14:38:52.463Z,30.71
2022-08-12T14:41:22.011Z,30.67
2022-08-12T14:44:04.489Z,30.69
2022-08-12T14:46:39.877Z,30.59
2022-08-12T14:49:11.497Z,30.91
2022-08-12T14:52:43.912Z,31.06
2022-08-12T14:57:57.096Z,31.09
2022-08-12T15:00:50.703Z,30.99
2022-08-12T15:03:20.594Z,30.79
2022-08-12T15:06:05.451Z,30.83
2022-08-12T15:08:38.585Z,31.01
2022-08-12T15:11:13.564Z,31.23
2022-08-12T15:13:45.652Z,31.06
2022-08-12T15:16:14.294Z,31.25
2022-08-12T15:18:55.491Z,31.17
2022-08-12T15:22:35.758Z,31.21
2022-08-12T15:24:16.299Z,31.08
2022-08-12T15:26:46.571Z,31.21
2022-08-12T15:29:14.258Z,30.97
2022-08-12T15:32:00.912Z,30.68
2022-08-12T15:34:30.761Z,30.74
2022-08-12T15:36:58.570Z,30.86
2022-08-12T15:39:27.868Z,30.94
2022-08-12T15:42:01.945Z,30.73
2022-08-12T15:44:38.255Z,30.71
2022-08-12T15:47:10.159Z,30.94
2022-08-12T15:49:43.405Z,30.88
2022-08-12T15:52:27.524Z,30.69
2022-08-12T15:54:58.775Z,30.87
2022-08-12T15:57:28.162Z,30.80
2022-08-12T16:00:07.544Z,30.58
2022-08-12T16:02:51.021Z,30.60
2022-08-12T16:06:12.196Z,30.60
2022-08-12T16:08:15.261Z,30.33
2022-08-12T16:10:45.067Z,30.36
2022-08-12T16:13:18.174Z,30.46
2022-08-12T16:16:02.418Z,30.44
2022-08-12T16:18:31.302Z,30.33
2022-08-12T16:20:58.922Z,30.43
2022-08-12T16:23:51.667Z,30.36
2022-08-12T16:26:20.338Z,30.39
2022-08-12T16:28:56.975Z,30.29
2022-08-12T16:31:24.650Z,30.24
2022-08-12T16:34:00.361Z,30.32
2022-08-12T16:36:29.565Z,30.24
2022-08-12T16:38:57.727Z,30.34
2022-08-12T16:41:39.923Z,30.54
2022-08-12T16:44:09.506Z,30.44
2022-08-12T16:46:38.301Z,30.35
2022-08-12T16:49:08.964Z,30.39
2022-08-12T16:51:46.517Z,30.50
2022-08-12T16:54:16.561Z,30.31
2022-08-12T16:56:50.614Z,30.24
2022-08-12T16:59:25.494Z,30.40
2022-08-12T17:01:54.221Z,30.34
2022-08-12T17:04:24.428Z,30.20
2022-08-12T17:06:52.797Z,30.06
2022-08-12T17:09:20.505Z,30.02
2022-08-12T17:11:49.087Z,30.00
2022-08-12T17:14:20.378Z,30.20
2022-08-12T17:16:54.756Z,30.07
2022-08-12T17:20:29.143Z,30.01
2022-08-12T17:22:15.334Z,29.98
2022-08-12T17:24:50.654Z,29.96
2022-08-12T17:27:23.823Z,29.73
2022-08-12T17:30:03.074Z,29.74
2022-08-12T17:32:35.850Z,29.72
2022-08-12T17:35:23.265Z,29.55
2022-08-12T17:37:59.613Z,29.50
2022-08-12T17:40:35.333Z,29.49
2022-08-12T17:43:57.933Z,29.28
2022-08-12T17:45:58.714Z,29.29
2022-08-12T17:48:35.030Z,29.12
2022-08-12T17:51:15.609Z,29.06
2022-08-12T17:54:10.936Z,28.90
2022-08-12T17:56:36.771Z,28.76
2022-08-12T17:59:04.634Z,28.79
2022-08-12T18:01:35.932Z,28.58
2022-08-12T18:04:21.348Z,28.63
2022-08-12T18:06:50.562Z,28.32
2022-08-12T18:09:19.349Z,28.22
2022-08-12T18:12:07.820Z,28.05
2022-08-12T18:14:37.341Z,27.88
2022-08-12T18:17:09.494Z,27.88
2022-08-12T18:20:05.168Z,27.94
2022-08-12T18:22:30.994Z,28.26
2022-08-12T18:25:03.627Z,28.34
2022-08-12T18:27:46.696Z,28.35
2022-08-12T18:30:20.317Z,28.40
2022-08-12T18:32:58.215Z,28.42
2022-08-12T18:35:47.101Z,28.02
2022-08-12T18:38:18.111Z,27.45
2022-08-12T18:41:06.063Z,27.24
2022-08-12T18:43:57.692Z,27.11
2022-08-12T18:46:27.490Z,27.09
2022-08-12T18:49:16.854Z,26.69
2022-08-12T18:51:55.588Z,26.34
2022-08-12T18:54:34.627Z,26.00
2022-08-12T18:57:07.093Z,25.63
2022-08-12T19:00:02.370Z,25.59
2022-08-12T19:02:39.670Z,25.61
2022-08-12T19:05:09.611Z,25.08
2022-08-12T19:07:49.537Z,24.73
2022-08-12T19:10:25.848Z,24.44
2022-08-12T19:13:15.673Z,24.50
2022-08-12T19:15:48.967Z,24.21
2022-08-12T19:18:16.905Z,23.87
2022-08-12T19:20:47.896Z,23.63
2022-08-12T19:23:20.925Z,23.37
2022-08-12T19:25:59.285Z,23.19
2022-08-12T19:28:35.706Z,22.99
2022-08-12T19:31:44.548Z,22.75
2022-08-12T19:37:17.947Z,22.41
2022-08-12T19:40:10.003Z,22.34
2022-08-12T19:42:42.729Z,22.20
2022-08-12T19:45:13.896Z,22.09
2022-08-12T19:47:44.585Z,22.03
2022-08-12T19:50:14.741Z,22.04
2022-08-12T19:52:53.413Z,22.05
2022-08-12T19:55:25.546Z,22.04
2022-08-12T19:58:02.996Z,22.06
2022-08-12T20:00:34.858Z,22.07
2022-08-12T20:03:04.785Z,21.98
2022-08-12T20:06:04.701Z,21.81
2022-08-12T20:08:31.640Z,21.79
2022-08-12T20:12:09.617Z,21.64
2022-08-12T20:14:01.109Z,21.58
2022-08-12T20:16:52.902Z,21.58
2022-08-12T20:19:17.187Z,21.56
2022-08-12T20:21:45.222Z,21.49
2022-08-12T20:24:14.476Z,21.45
2022-08-12T20:26:44.095Z,21.40
2022-08-12T20:29:14.648Z,21.23
2022-08-12T20:31:44.267Z,21.17
2022-08-12T20:34:12.500Z,20.98
2022-08-12T20:36:44.203Z,20.86
2022-08-12T20:39:37.222Z,20.72
2022-08-12T20:42:07.467Z,20.69
2022-08-12T20:44:39.809Z,20.64
2022-08-12T20:47:18.274Z,20.57
2022-08-12T20:49:54.866Z,20.52
2022-08-12T20:52:25.269Z,20.50
2022-08-12T20:54:53.799Z,20.34
2022-08-12T20:57:25.262Z,20.25
2022-08-12T21:00:16.511Z,20.20
2022-08-12T21:02:45.522Z,20.21
2022-08-12T21:06:12.086Z,20.32
2022-08-12T21:08:26.362Z,20.44
2022-08-12T21:10:54.473Z,20.42
2022-08-12T21:13:29.475Z,20.51
2022-08-12T21:16:10.024Z,20.42
2022-08-12T21:18:38.387Z,20.44
2022-08-12T21:21:06.665Z,20.37
2022-08-12T21:23:37.126Z,20.37
2022-08-12T21:26:12.360Z,20.35
2022-08-12T21:28:56.681Z,20.27
2022-08-12T21:32:39.507Z,20.29
2022-08-12T21:34:17.830Z,20.37
2022-08-12T21:36:49.409Z,20.39
2022-08-12T21:39:21.176Z,20.39
2022-08-12T21:41:51.751Z,20.37
2022-08-12T21:44:24.288Z,20.34
2022-08-12T21:47:20.984Z,20.24
2022-08-12T21:49:55.603Z,20.21
2022-08-12T21:52:34.560Z,20.01
2022-08-12T21:55:08.407Z,19.89
2022-08-12T21:57:50.486Z,19.73
2022-08-12T22:00:33.291Z,19.61
2022-08-12T22:04:03.436Z,19.62
2022-08-12T22:06:31.584Z,19.68
2022-08-12T22:09:15.444Z,19.71
2022-08-12T22:11:49.126Z,19.65
2022-08-12T22:14:25.059Z,19.70
2022-08-12T22:16:56.111Z,19.64
2022-08-12T22:19:23.948Z,19.69
2022-08-12T22:21:53.977Z,19.70
2022-08-12T22:24:26.318Z,19.71
2022-08-12T22:26:57.403Z,19.90
2022-08-12T22:29:43.071Z,19.94
2022-08-12T22:32:13.124Z,20.12
2022-08-12T22:34:40.707Z,20.12
2022-08-12T22:37:20.164Z,20.15
2022-08-12T22:39:49.180Z,19.93
2022-08-12T22:42:34.835Z,19.78
2022-08-12T22:45:23.359Z,19.65
2022-08-12T22:47:55.145Z,19.67
2022-08-12T22:50:28.545Z,19.60
2022-08-12T22:53:14.637Z,19.41
2022-08-12T22:55:59.796Z,19.31
2022-08-12T22:58:33.209Z,19.33
2022-08-12T23:01:02.452Z,19.74
2022-08-12T23:03:47.955Z,20.04
2022-08-12T23:06:19.410Z,20.31
2022-08-12T23:08:48.055Z,20.30
2022-08-12T23:11:17.101Z,20.04
2022-08-12T23:13:54.921Z,19.80
2022-08-12T23:16:29.345Z,19.79
2022-08-12T23:19:10.443Z,19.88
2022-08-12T23:22:05.890Z,19.70
2022-08-12T23:24:37.220Z,19.74
2022-08-12T23:27:44.139Z,19.92
2022-08-12T23:30:24.958Z,19.93
2022-08-12T23:33:00.593Z,19.96
2022-08-12T23:35:54.085Z,19.75
2022-08-12T23:38:30.579Z,19.57
2022-08-12T23:41:00.969Z,19.35
2022-08-12T23:43:39.447Z,18.94
2022-08-12T23:46:09.452Z,18.89
2022-08-12T23:48:37.444Z,18.81
2022-08-12T23:51:22.666Z,18.92
2022-08-12T23:53:55.066Z,18.93
2022-08-12T23:56:23.729Z,19.00
2022-08-12T23:58:52.706Z,19.29
